createdAt,value
2023-04-29T00:01:13.861Z,17.38
2023-04-29T00:06:07.333Z,12.75
2023-04-29T00:11:01.175Z,14.48
2023-04-29T00:15:54.748Z,13.27
2023-04-29T00:20:48.591Z,13.38
2023-04-29T00:25:42.168Z,15.55
2023-04-29T00:30:37.075Z,12.82
2023-04-29T00:35:31.768Z,18.83
2023-04-29T00:40:25.022Z,13.38
2023-04-29T00:45:18.919Z,13.82
2023-04-29T00:50:11.619Z,12.57
2023-04-29T00:55:05.896Z,16.10
2023-04-29T01:00:00.048Z,13.45
2023-04-29T01:04:54.273Z,14.75
2023-04-29T01:09:46.612Z,17.65
2023-04-29T01:14:42.552Z,15.95
2023-04-29T01:19:56.224Z,13.25
2023-04-29T01:24:50.348Z,13.25
2023-04-29T01:29:59.500Z,12.15
2023-04-29T01:40:19.180Z,14.45
2023-04-29T01:45:46.233Z,18.25
2023-04-29T01:50:41.233Z,18.17
2023-04-29T01:55:38.419Z,18.98
2023-04-29T02:00:42.136Z,20.58
2023-04-29T02:05:36.604Z,17.58
2023-04-29T02:10:29.996Z,18.83
2023-04-29T02:15:38.989Z,18.25
2023-04-29T02:20:32.299Z,18.33
2023-04-29T02:25:25.154Z,23.08
2023-04-29T02:30:17.391Z,23.73
2023-04-29T02:35:10.356Z,18.98
2023-04-29T02:40:04.226Z,17.48
2023-04-29T02:44:56.987Z,19.55
2023-04-29T02:49:50.960Z,18.23
2023-04-29T02:54:44.401Z,18.90
2023-04-29T02:59:38.427Z,22.50
2023-04-29T03:04:31.564Z,22.42
2023-04-29T03:09:25.207Z,20.88
2023-04-29T03:14:19.034Z,20.23
2023-04-29T03:19:14.113Z,16.83
2023-04-29T03:24:07.092Z,16.80
2023-04-29T03:29:01.050Z,16.38
2023-04-29T03:33:54.417Z,17.55
2023-04-29T03:38:48.228Z,16.30
2023-04-29T03:43:44.539Z,18.70
2023-04-29T03:48:38.613Z,14.32
2023-04-29T03:53:33.358Z,16.25
2023-04-29T03:58:29.156Z,17.42
2023-04-29T04:03:25.014Z,16.90
2023-04-29T04:08:18.351Z,13.55
2023-04-29T04:13:17.560Z,16.48
2023-04-29T04:18:10.378Z,12.32
2023-04-29T04:23:06.448Z,11.30
2023-04-29T04:28:00.387Z,11.98
2023-04-29T04:33:11.529Z,13.20
2023-04-29T04:38:11.868Z,13.63
2023-04-29T04:43:05.829Z,13.95
2023-04-29T04:47:59.265Z,14.50
2023-04-29T04:52:57.135Z,18.42
2023-04-29T04:58:10.091Z,17.85
2023-04-29T05:03:05.040Z,23.65
2023-04-29T05:07:59.206Z,13.02
2023-04-29T05:13:00.511Z,17.65
2023-04-29T05:17:55.146Z,21.08
2023-04-29T05:22:48.213Z,18.50
2023-04-29T05:27:41.798Z,19.23
2023-04-29T05:32:38.181Z,16.98
2023-04-29T05:37:35.260Z,17.45
2023-04-29T05:42:45.927Z,13.80
2023-04-29T05:47:39.329Z,19.25
2023-04-29T05:52:33.314Z,17.65
2023-04-29T05:57:26.989Z,11.82
2023-04-29T06:02:20.733Z,13.50
2023-04-29T06:07:14.373Z,13.50
2023-04-29T06:12:36.777Z,13.88
2023-04-29T06:17:30.293Z,10.30
2023-04-29T06:22:24.084Z,13.98
2023-04-29T06:27:20.527Z,13.63
2023-04-29T06:32:14.595Z,13.23
2023-04-29T06:37:12.147Z,15.85
2023-04-29T06:42:24.967Z,14.95
2023-04-29T06:47:39.806Z,17.58
2023-04-29T06:52:41.166Z,16.13
2023-04-29T06:57:41.342Z,13.55
2023-04-29T07:02:41.755Z,11.13
2023-04-29T07:07:38.052Z,9.23
2023-04-29T07:12:35.429Z,12.23
2023-04-29T07:17:35.242Z,11.50
2023-04-29T07:22:31.725Z,10.57
2023-04-29T07:27:30.341Z,17.80
2023-04-29T07:32:28.967Z,13.00
2023-04-29T07:37:25.977Z,17.95
2023-04-29T07:42:23.413Z,12.55
2023-04-29T07:47:21.941Z,15.70
2023-04-29T07:52:20.021Z,14.40
2023-04-29T07:57:16.261Z,12.93
2023-04-29T08:02:09.329Z,15.75
2023-04-29T08:07:05.606Z,12.45
2023-04-29T08:11:59.717Z,12.00
2023-04-29T08:16:53.386Z,15.73
2023-04-29T08:21:46.960Z,16.33
2023-04-29T08:26:44.224Z,12.85
2023-04-29T08:31:37.797Z,11.93
2023-04-29T08:36:30.919Z,11.00
2023-04-29T08:41:25.811Z,16.40
2023-04-29T08:46:21.214Z,8.63
2023-04-29T08:51:15.129Z,9.32
2023-04-29T08:56:23.653Z,14.07
2023-04-29T09:01:17.416Z,9.65
2023-04-29T09:06:12.903Z,9.95
2023-04-29T09:11:06.684Z,10.55
2023-04-29T09:16:00.390Z,11.63
2023-04-29T09:20:54.533Z,8.70
2023-04-29T09:25:57.330Z,9.93
2023-04-29T09:30:51.251Z,10.65
2023-04-29T09:35:44.758Z,9.27
2023-04-29T09:40:50.293Z,11.88
2023-04-29T09:45:50.432Z,9.40
2023-04-29T09:50:44.693Z,13.07
2023-04-29T09:55:53.599Z,12.73
2023-04-29T10:00:48.465Z,10.63
2023-04-29T10:05:42.454Z,9.10
2023-04-29T10:10:35.986Z,15.55
2023-04-29T10:15:37.263Z,12.82
2023-04-29T10:20:32.360Z,14.13
2023-04-29T10:25:26.738Z,12.45
2023-04-29T10:30:21.175Z,12.13
2023-04-29T10:35:15.879Z,12.20
2023-04-29T10:40:33.222Z,11.88
2023-04-29T10:45:32.444Z,14.85
2023-04-29T10:50:25.854Z,18.27
2023-04-29T10:55:18.773Z,15.80
2023-04-29T11:00:27.310Z,15.38
2023-04-29T11:05:34.182Z,15.77
2023-04-29T11:10:38.118Z,14.25
2023-04-29T11:15:33.232Z,15.95
2023-04-29T11:20:27.108Z,17.80
2023-04-29T11:25:20.574Z,14.73
2023-04-29T11:30:14.656Z,13.98
2023-04-29T11:35:10.807Z,12.65
2023-04-29T11:40:04.067Z,13.98
2023-04-29T11:44:58.622Z,12.38
2023-04-29T11:49:51.806Z,16.58
2023-04-29T11:54:45.217Z,13.63
2023-04-29T11:59:38.158Z,12.93
2023-04-29T12:04:32.125Z,13.77
2023-04-29T12:09:26.433Z,13.43
2023-04-29T12:14:20.945Z,12.13
2023-04-29T12:19:14.670Z,11.48
2023-04-29T12:24:08.466Z,11.90
2023-04-29T12:29:03.195Z,11.13
2023-04-29T12:33:57.815Z,15.57
2023-04-29T12:38:51.203Z,12.80
2023-04-29T12:43:45.034Z,12.82
2023-04-29T12:48:42.004Z,11.73
2023-04-29T12:53:35.689Z,11.00
2023-04-29T12:58:33.346Z,12.88
2023-04-29T13:03:26.903Z,14.32
2023-04-29T13:08:21.313Z,13.10
2023-04-29T13:13:14.779Z,15.45
2023-04-29T13:18:07.717Z,13.23
2023-04-29T13:23:01.432Z,12.10
2023-04-29T13:27:55.425Z,14.95
2023-04-29T13:32:55.185Z,14.55
2023-04-29T13:37:52.478Z,16.90
2023-04-29T13:42:50.007Z,14.70
2023-04-29T13:48:03.832Z,13.20
2023-04-29T13:53:30.698Z,14.50
2023-04-29T13:58:40.150Z,14.00
2023-04-29T14:03:24.431Z,14.68
2023-04-29T14:08:18.645Z,12.75
2023-04-29T14:13:12.104Z,11.15
2023-04-29T14:18:08.221Z,14.88
2023-04-29T14:23:03.080Z,13.23
2023-04-29T14:27:56.240Z,12.32
2023-04-29T14:32:50.040Z,11.20
2023-04-29T14:37:43.324Z,16.27
2023-04-29T14:42:36.999Z,12.55
2023-04-29T14:47:34.076Z,12.93
2023-04-29T14:52:26.849Z,17.25
2023-04-29T14:57:20.929Z,12.52
2023-04-29T15:02:14.679Z,14.07
2023-04-29T15:07:07.928Z,14.38
2023-04-29T15:12:02.576Z,15.60
2023-04-29T15:16:56.728Z,14.82
2023-04-29T15:21:50.339Z,13.20
2023-04-29T15:26:44.170Z,13.23
2023-04-29T15:31:38.305Z,11.95
2023-04-29T15:36:33.882Z,13.48
2023-04-29T15:41:27.376Z,17.25
2023-04-29T15:46:20.846Z,14.50
2023-04-29T15:51:16.955Z,15.55
2023-04-29T15:56:11.345Z,18.08
2023-04-29T16:01:05.336Z,14.57
2023-04-29T16:05:58.756Z,15.48
2023-04-29T16:10:52.615Z,15.82
2023-04-29T16:15:46.537Z,15.00
2023-04-29T16:20:39.573Z,15.85
2023-04-29T16:25:33.656Z,13.95
2023-04-29T16:30:28.446Z,18.67
2023-04-29T16:35:41.780Z,14.25
2023-04-29T16:40:35.604Z,14.50
2023-04-29T16:45:29.626Z,14.68
2023-04-29T16:50:22.758Z,15.35
2023-04-29T16:55:16.801Z,15.52
2023-04-29T17:00:12.764Z,15.63
2023-04-29T17:05:07.672Z,17.33
2023-04-29T17:10:01.035Z,22.38
2023-04-29T17:14:54.787Z,17.33
2023-04-29T17:19:50.862Z,13.88
2023-04-29T17:24:48.049Z,20.10
2023-04-29T17:29:41.594Z,14.25
2023-04-29T17:34:37.138Z,17.45
2023-04-29T17:39:30.465Z,13.50
2023-04-29T17:44:23.827Z,14.65
2023-04-29T17:49:18.244Z,15.52
2023-04-29T17:54:11.865Z,17.05
2023-04-29T17:59:06.297Z,16.88
2023-04-29T18:04:00.025Z,16.35
2023-04-29T18:08:53.430Z,15.25
2023-04-29T18:13:47.240Z,15.75
2023-04-29T18:18:40.883Z,13.98
2023-04-29T18:23:33.994Z,15.00
2023-04-29T18:28:27.151Z,17.38
2023-04-29T18:33:21.130Z,22.23
2023-04-29T18:38:17.677Z,17.52
2023-04-29T18:43:12.441Z,17.40
2023-04-29T18:48:07.463Z,19.63
2023-04-29T18:53:05.184Z,16.45
2023-04-29T18:57:58.628Z,14.20
2023-04-29T19:02:52.208Z,14.52
2023-04-29T19:07:45.384Z,14.68
2023-04-29T19:12:39.459Z,23.17
2023-04-29T19:17:33.261Z,16.38
2023-04-29T19:22:28.104Z,16.15
2023-04-29T19:27:21.764Z,16.20
2023-04-29T19:32:14.788Z,22.15
2023-04-29T19:37:07.585Z,18.05
2023-04-29T19:42:00.343Z,16.25
2023-04-29T19:46:54.538Z,18.55
2023-04-29T19:51:47.692Z,16.90
2023-04-29T19:56:41.792Z,16.73
2023-04-29T20:01:34.663Z,19.75
2023-04-29T20:06:28.866Z,17.30
2023-04-29T20:11:23.308Z,17.45
2023-04-29T20:16:16.913Z,20.95
2023-04-29T20:21:11.071Z,21.52
2023-04-29T20:26:04.669Z,21.92
2023-04-29T20:30:58.050Z,22.05
2023-04-29T20:35:52.335Z,20.70
2023-04-29T20:40:46.337Z,18.73
2023-04-29T20:45:40.315Z,19.35
2023-04-29T20:50:33.496Z,16.50
2023-04-29T20:55:27.806Z,18.65
2023-04-29T21:00:20.507Z,22.20
2023-04-29T21:05:14.177Z,19.88
2023-04-29T21:10:09.607Z,19.52
2023-04-29T21:15:03.976Z,20.10
2023-04-29T21:19:57.348Z,18.90
2023-04-29T21:24:51.367Z,18.52
2023-04-29T21:29:44.422Z,22.90
2023-04-29T21:34:37.754Z,18.88
2023-04-29T21:39:32.071Z,19.60
2023-04-29T21:44:26.004Z,20.58
2023-04-29T21:49:19.921Z,18.70
2023-04-29T21:54:13.382Z,17.33
2023-04-29T21:59:07.352Z,20.40
2023-04-29T22:04:00.802Z,20.08
2023-04-29T22:08:56.305Z,19.55
2023-04-29T22:13:50.103Z,20.92
2023-04-29T22:18:43.609Z,20.42
2023-04-29T22:23:37.023Z,19.08
2023-04-29T22:28:29.971Z,17.98
2023-04-29T22:33:24.432Z,24.00
2023-04-29T22:38:17.263Z,18.75
2023-04-29T22:43:10.760Z,19.50
2023-04-29T22:48:04.304Z,19.38
2023-04-29T22:52:57.615Z,18.52
2023-04-29T22:57:53.946Z,18.95
2023-04-29T23:02:47.246Z,16.98
2023-04-29T23:07:41.824Z,18.92
2023-04-29T23:12:34.847Z,19.55
2023-04-29T23:17:28.007Z,19.10
2023-04-29T23:22:21.555Z,21.42
2023-04-29T23:27:14.746Z,23.50
2023-04-29T23:32:08.297Z,22.48
2023-04-29T23:37:02.043Z,21.70
2023-04-29T23:41:54.765Z,20.20
2023-04-29T23:46:49.791Z,22.60
2023-04-29T23:51:44.248Z,21.35
2023-04-29T23:56:37.290Z,22.58
